Time;durP1;ratioP1;P1;durP2;ratioP2;P2;SDS_P1;SDS_P2;PMS_P1;PMS_P2;Temp;Humidity;BMP_temperature;BMP_pressure;BME280_temperature;BME280_humidity;BME280_pressure;Samples;Min_cycle;Max_cycle;Signal;HPM_P1;HPM_P2
2022/09/15 00:01:22;;;;;;;3.42;0.65;;;;;;;13.00;99.32;100438.00;4848838;29;20045;-92
2022/09/15 00:03:48;;;;;;;5.35;0.80;;;;;;;12.95;99.73;100438.50;4849074;29;20045;-92
2022/09/15 00:06:15;;;;;;;2.17;0.63;;;;;;;12.88;100.00;100445.44;4884690;29;20077;-91
2022/09/15 00:08:41;;;;;;;2.13;0.80;;;;;;;12.87;100.00;100457.03;4880394;29;20036;-90
2022/09/15 00:11:13;;;;;;;1.58;0.70;;;;;;;12.83;100.00;100453.88;4828182;29;20041;-91
2022/09/15 00:13:39;;;;;;;1.25;0.50;;;;;;;12.82;100.00;100462.00;4846403;29;20029;-91
2022/09/15 00:16:07;;;;;;;1.00;0.50;;;;;;;12.80;100.00;100456.84;4868206;29;20093;-91
2022/09/15 00:18:33;;;;;;;2.60;0.60;;;;;;;12.79;100.00;100463.13;4850040;29;20570;-91
2022/09/15 00:21:04;;;;;;;2.10;0.60;;;;;;;12.81;100.00;100461.16;4874900;29;20047;-92
2022/09/15 00:23:30;;;;;;;1.05;0.50;;;;;;;12.73;100.00;100459.31;4860001;29;20041;-92
2022/09/15 00:25:56;;;;;;;1.10;0.60;;;;;;;12.72;100.00;100455.00;4845656;29;20048;-91
2022/09/15 00:28:22;;;;;;;2.45;0.50;;;;;;;12.73;100.00;100459.31;4847210;29;20438;-92
2022/09/15 00:30:50;;;;;;;1.65;0.55;;;;;;;12.71;100.00;100455.16;4864190;29;20375;-91
2022/09/15 00:33:18;;;;;;;3.47;0.70;;;;;;;12.76;100.00;100464.28;4861877;29;20040;-89
2022/09/15 00:35:45;;;;;;;1.05;0.40;;;;;;;12.75;100.00;100452.03;4866059;29;20485;-92
2022/09/15 00:38:13;;;;;;;0.75;0.40;;;;;;;12.73;100.00;100459.31;4858491;29;20047;-92
2022/09/15 00:40:58;;;;;;;3.85;0.52;;;;;;;12.73;100.00;100463.75;4868532;29;20112;-91
2022/09/15 00:43:43;;;;;;;0.87;0.50;;;;;;;12.67;100.00;100448.50;4877295;29;20037;-91
2022/09/15 00:46:09;;;;;;;0.40;0.40;;;;;;;12.69;100.00;100451.81;4874175;29;20475;-92
2022/09/15 00:48:38;;;;;;;5.15;0.50;;;;;;;12.69;100.00;100446.50;4861202;29;20037;-92
2022/09/15 00:51:06;;;;;;;2.35;0.50;;;;;;;12.70;100.00;100454.31;4877636;29;20135;-91
2022/09/15 00:53:32;;;;;;;5.40;1.58;;;;;;;12.69;100.00;100452.66;4845269;29;20591;-92
2022/09/15 00:56:00;;;;;;;4.47;0.63;;;;;;;12.69;100.00;100450.00;4876757;29;20033;-92
2022/09/15 00:58:37;;;;;;;2.97;0.93;;;;;;;12.71;100.00;100444.56;4878605;29;20038;-91
2022/09/15 01:01:06;;;;;;;0.85;0.50;;;;;;;12.73;100.00;100448.69;4840062;29;20065;-91
2022/09/15 01:03:34;;;;;;;1.52;0.50;;;;;;;12.74;100.00;100458.31;4877792;29;20054;-91
2022/09/15 01:06:10;;;;;;;1.05;0.40;;;;;;;12.75;100.00;100454.69;4849030;29;20522;-88
2022/09/15 01:08:47;;;;;;;2.25;0.47;;;;;;;12.75;100.00;100452.03;4874386;29;20489;-92
2022/09/15 01:11:15;;;;;;;3.33;0.63;;;;;;;12.70;100.00;100448.16;4859144;29;20032;-92
2022/09/15 01:13:42;;;;;;;3.72;0.75;;;;;;;12.72;100.00;100440.91;4875537;29;20029;-91
2022/09/15 01:16:30;;;;;;;0.35;0.30;;;;;;;12.73;100.00;100440.72;4856110;29;20484;-92
2022/09/15 01:19:27;;;;;;;1.60;0.73;;;;;;;12.72;100.00;100433.78;4880578;29;20044;-91
2022/09/15 01:22:11;;;;;;;1.65;0.47;;;;;;;12.72;100.00;100444.38;4877881;29;20069;-90
2022/09/15 01:25:01;;;;;;;2.30;0.80;;;;;;;12.67;100.00;100449.31;4866775;29;20096;-92
2022/09/15 01:27:35;;;;;;;0.50;0.40;;;;;;;12.59;100.00;100442.16;4850841;29;20045;-91
2022/09/15 01:30:13;;;;;;;2.58;0.40;;;;;;;12.60;100.00;100449.13;4875628;29;20501;-91
2022/09/15 01:33:04;;;;;;;0.90;0.60;;;;;;;12.60;100.00;100449.13;4844481;29;20038;-91
2022/09/15 01:35:51;;;;;;;2.28;0.55;;;;;;;12.54;100.00;100452.41;4856086;29;20045;-91
2022/09/15 01:38:40;;;;;;;4.63;0.52;;;;;;;12.46;100.00;100460.31;4860450;29;20053;-92
2022/09/15 01:41:33;;;;;;;5.13;0.65;;;;;;;12.39;100.00;100452.16;4850652;29;20052;-91
2022/09/15 01:44:08;;;;;;;0.82;0.40;;;;;;;12.39;100.00;100460.13;4845347;29;20040;-91
2022/09/15 01:46:38;;;;;;;1.10;0.40;;;;;;;12.39;100.00;100462.78;4862306;29;20042;-92
2022/09/15 01:49:08;;;;;;;2.80;0.40;;;;;;;12.35;100.00;100454.28;4847700;29;20044;-91
2022/09/15 01:51:38;;;;;;;0.80;0.35;;;;;;;12.35;100.00;100458.75;4862847;29;20120;-92
2022/09/15 01:54:05;;;;;;;2.10;0.35;;;;;;;12.35;100.00;100458.75;4848886;29;20037;-91
2022/09/15 01:56:31;;;;;;;2.63;0.35;;;;;;;12.36;100.00;100457.78;4878089;29;20053;-91
2022/09/15 01:58:57;;;;;;;2.95;0.70;;;;;;;12.36;100.00;100461.25;4879121;29;20490;-91
2022/09/15 02:01:39;;;;;;;2.17;0.47;;;;;;;12.40;100.00;100448.50;4867810;29;20044;-92
2022/09/15 02:04:26;;;;;;;0.77;0.40;;;;;;;12.39;100.00;100452.97;4866197;29;20098;-91
2022/09/15 02:07:05;;;;;;;0.52;0.43;;;;;;;12.38;100.00;100455.78;4878594;29;20166;-91
2022/09/15 02:09:35;;;;;;;1.05;0.40;;;;;;;12.36;100.00;100455.94;4863752;29;20056;-91
2022/09/15 02:12:05;;;;;;;2.83;0.43;;;;;;;12.34;100.00;100449.94;4867592;29;20040;-91
2022/09/15 02:14:43;;;;;;;4.18;0.52;;;;;;;12.37;100.00;100454.13;4863917;29;20048;-92
2022/09/15 02:17:15;;;;;;;6.50;0.50;;;;;;;12.43;100.00;100463.25;4863756;29;20034;-90
2022/09/15 02:19:49;;;;;;;3.78;0.57;;;;;;;12.43;100.00;100460.63;4869824;29;20044;-91
2022/09/15 02:22:22;;;;;;;0.85;0.60;;;;;;;12.48;100.00;100461.81;4859604;29;20044;-91
2022/09/15 02:24:58;;;;;;;6.03;0.50;;;;;;;12.50;100.00;100462.47;4850362;29;20067;-92
2022/09/15 02:27:26;;;;;;;;;;;;;;;12.36;100.00;100460.44;4863478;29;20052;-92
2022/09/15 02:29:57;;;;;;;1.77;0.65;;;;;;;12.43;100.00;100460.63;4863463;29;19972;-91
2022/09/15 02:32:26;;;;;;;2.80;0.43;;;;;;;12.49;100.00;100458.19;4873797;29;20463;-92
2022/09/15 02:34:54;;;;;;;0.98;0.40;;;;;;;12.44;100.00;100464.94;4835008;29;20048;-91
2022/09/15 02:37:22;;;;;;;0.88;0.50;;;;;;;12.43;100.00;100463.25;4865863;29;20044;-91
2022/09/15 02:39:56;;;;;;;2.42;0.50;;;;;;;12.40;100.00;100459.97;4831769;29;20056;-91
2022/09/15 02:42:32;;;;;;;1.58;0.70;;;;;;;12.37;100.00;100473.53;4846687;29;20044;-92
2022/09/15 02:44:59;;;;;;;1.30;0.60;;;;;;;12.35;100.00;100478.13;4863355;29;20045;-92
2022/09/15 02:47:27;;;;;;;2.30;0.60;;;;;;;12.34;100.00;100475.66;4847708;29;20033;-91
2022/09/15 02:49:53;;;;;;;4.43;0.60;;;;;;;12.34;100.00;100478.28;4858993;29;20447;-91
2022/09/15 02:52:20;;;;;;;2.25;0.50;;;;;;;12.33;100.00;100479.25;4864841;29;20048;-92
2022/09/15 02:54:46;;;;;;;2.55;0.40;;;;;;;12.30;100.00;100482.22;4862263;29;20478;-92
2022/09/15 02:57:15;;;;;;;3.20;0.52;;;;;;;12.27;100.00;100488.69;4845075;29;20044;-91
2022/09/15 03:02:26;;;;;;;3.13;0.30;;;;;;;12.28;100.00;100495.63;4856888;29;20049;-92
2022/09/15 03:04:52;;;;;;;1.20;0.40;;;;;;;12.26;100.00;100495.78;4846765;29;20128;-92
2022/09/15 03:07:18;;;;;;;2.05;0.20;;;;;;;12.19;100.00;100481.50;4843499;29;20065;-92
2022/09/15 03:09:45;;;;;;;0.70;0.30;;;;;;;12.19;100.00;100480.66;4863970;29;20064;-94
2022/09/15 03:12:11;;;;;;;0.82;0.30;;;;;;;12.18;100.00;100484.31;4862063;29;20072;-92
2022/09/15 03:14:37;;;;;;;0.88;0.30;;;;;;;12.19;100.00;100478.84;4844037;29;20033;-92
2022/09/15 03:17:03;;;;;;;0.82;0.35;;;;;;;12.22;100.00;100483.84;4852177;29;20391;-92
2022/09/15 03:19:29;;;;;;;1.73;0.40;;;;;;;12.29;100.00;100476.13;4845820;29;20390;-92
2022/09/15 03:21:55;;;;;;;1.05;0.17;;;;;;;12.31;100.00;100490.03;4860132;29;20037;-91
2022/09/15 03:24:22;;;;;;;0.85;0.30;;;;;;;12.31;100.00;100483.91;4831479;29;20044;-91
2022/09/15 03:26:48;;;;;;;1.10;0.30;;;;;;;12.26;100.00;100473.78;4855783;29;20048;-91
2022/09/15 03:29:15;;;;;;;1.67;0.30;;;;;;;12.29;100.00;100486.72;4872373;29;20045;-82
2022/09/15 03:31:41;;;;;;;0.22;0.20;;;;;;;12.27;100.00;100478.06;4832254;29;20041;-92
2022/09/15 03:34:07;;;;;;;2.97;0.40;;;;;;;12.31;100.00;100489.22;4873738;29;20036;-91
2022/09/15 03:36:33;;;;;;;0.95;0.20;;;;;;;12.26;100.00;100487.03;4869184;29;20033;-93
2022/09/15 03:38:59;;;;;;;1.40;0.30;;;;;;;12.25;100.00;100488.00;4858264;29;20064;-93
2022/09/15 03:41:26;;;;;;;1.95;0.28;;;;;;;12.18;100.00;100481.66;4870705;29;20058;-93
2022/09/15 03:43:52;;;;;;;0.57;0.20;;;;;;;12.20;100.00;100491.09;4876288;29;20041;-94
2022/09/15 03:46:19;;;;;;;1.05;0.38;;;;;;;12.18;100.00;100490.44;4864514;29;20044;-90
2022/09/15 03:48:46;;;;;;;3.47;0.32;;;;;;;12.15;100.00;100493.41;4876736;29;20037;-92
2022/09/15 03:51:13;;;;;;;1.00;0.40;;;;;;;12.14;100.00;100489.06;4876110;29;20037;-87
2022/09/15 03:53:40;;;;;;;0.15;0.15;;;;;;;12.18;100.00;100493.09;4867641;29;20036;-92
2022/09/15 03:56:30;;;;;;;1.38;0.52;;;;;;;12.17;100.00;100486.13;4871830;29;20041;-92
2022/09/15 03:58:57;;;;;;;1.42;0.30;;;;;;;12.14;100.00;100486.41;4844428;29;20135;-92
2022/09/15 04:01:23;;;;;;;8.88;0.50;;;;;;;12.17;100.00;100488.75;4861771;29;20504;-93
2022/09/15 04:03:50;;;;;;;3.97;0.30;;;;;;;12.17;100.00;100483.47;4876041;29;20045;-92
2022/09/15 04:06:18;;;;;;;1.45;0.30;;;;;;;12.20;100.00;100477.84;4857112;29;20080;-92
2022/09/15 04:08:44;;;;;;;0.30;0.20;;;;;;;12.22;100.00;100493.59;4858522;29;20049;-91
2022/09/15 04:11:11;;;;;;;1.33;0.50;;;;;;;12.19;100.00;100492.09;4863352;29;20392;-90
2022/09/15 04:13:39;;;;;;;1.67;0.40;;;;;;;12.13;100.00;100482.13;4852025;29;20044;-91
2022/09/15 04:16:07;;;;;;;0.90;0.50;;;;;;;12.14;100.00;100497.88;4866729;29;20096;-91
2022/09/15 04:18:34;;;;;;;2.50;0.43;;;;;;;12.10;100.00;100496.50;4855060;29;20049;-91
2022/09/15 04:21:02;;;;;;;0.90;0.30;;;;;;;12.10;100.00;100495.69;4865878;29;20097;-92
2022/09/15 04:23:28;;;;;;;1.48;0.50;;;;;;;12.13;100.00;100503.31;4838527;29;20390;-91
2022/09/15 04:26:00;;;;;;;1.02;0.40;;;;;;;12.18;100.00;100500.22;4849375;29;20048;-91
2022/09/15 04:28:28;;;;;;;3.03;0.60;;;;;;;12.16;100.00;100492.41;4871522;29;20044;-91
2022/09/15 04:31:05;;;;;;;2.00;0.38;;;;;;;12.20;100.00;100504.34;4861574;29;20040;-91
2022/09/15 04:33:32;;;;;;;3.92;0.50;;;;;;;12.15;100.00;100502.16;4828803;29;20061;-92
2022/09/15 04:36:06;;;;;;;0.60;0.30;;;;;;;12.20;100.00;100503.53;4880713;29;20113;-92
2022/09/15 04:38:32;;;;;;;3.17;0.50;;;;;;;12.18;100.00;100492.25;4891058;29;20131;-92
2022/09/15 04:40:58;;;;;;;3.25;0.40;;;;;;;12.19;100.00;100499.22;4846950;29;20072;-91
2022/09/15 04:43:25;;;;;;;4.60;0.85;;;;;;;12.19;100.00;100493.91;4878692;29;20291;-92
2022/09/15 04:45:52;;;;;;;2.08;0.43;;;;;;;12.19;100.00;100504.50;4854041;29;20123;-92
2022/09/15 04:48:18;;;;;;;1.10;0.38;;;;;;;12.14;100.00;100500.50;4865471;29;20097;-92
2022/09/15 04:50:43;;;;;;;0.90;0.30;;;;;;;12.17;100.00;100498.56;4863990;29;20482;-87
2022/09/15 04:53:09;;;;;;;0.98;0.32;;;;;;;12.19;100.00;100515.09;4883021;29;20037;-92
2022/09/15 04:55:35;;;;;;;3.88;0.60;;;;;;;12.15;100.00;100512.75;4871518;29;20394;-92
2022/09/15 04:58:02;;;;;;;1.30;0.50;;;;;;;12.19;100.00;100515.94;4875904;29;20034;-91
2022/09/15 05:00:29;;;;;;;2.28;0.50;;;;;;;12.22;100.00;100523.59;4846204;29;20044;-91
2022/09/15 05:02:55;;;;;;;2.38;0.57;;;;;;;12.23;100.00;100527.91;4863564;29;20060;-91
2022/09/15 05:05:21;;;;;;;1.00;0.30;;;;;;;12.20;100.00;100528.19;4833266;29;20577;-94
2022/09/15 05:07:47;;;;;;;2.22;0.70;;;;;;;12.22;100.00;100526.25;4857842;29;20038;-93
2022/09/15 05:10:13;;;;;;;5.80;0.60;;;;;;;12.23;100.00;100529.72;4860956;29;20076;-92
2022/09/15 05:12:40;;;;;;;4.10;0.60;;;;;;;12.22;100.00;100534.19;4870647;29;20041;-93
2022/09/15 05:15:06;;;;;;;3.88;1.10;;;;;;;12.21;100.00;100532.53;4864670;29;20037;-93
2022/09/15 05:17:32;;;;;;;3.30;0.60;;;;;;;12.15;100.00;100522.56;4884649;29;20080;-91
2022/09/15 05:19:59;;;;;;;4.15;0.57;;;;;;;12.14;100.00;100526.16;4834849;29;20049;-92
2022/09/15 05:22:26;;;;;;;4.72;0.73;;;;;;;12.20;100.00;100530.84;4877190;29;20797;-93
2022/09/15 05:24:52;;;;;;;2.40;0.60;;;;;;;12.18;100.00;100532.84;4856325;29;20041;-92
2022/09/15 05:27:18;;;;;;;4.75;0.40;;;;;;;12.20;100.00;100528.19;4845251;29;20048;-92
2022/09/15 05:29:44;;;;;;;7.00;0.90;;;;;;;12.19;100.00;100531.84;4860476;29;20041;-91
2022/09/15 05:32:10;;;;;;;6.47;0.70;;;;;;;12.20;100.00;100530.84;4824195;29;20105;-91
2022/09/15 05:34:36;;;;;;;8.15;1.05;;;;;;;12.21;100.00;100534.34;4860986;29;20410;-91
2022/09/15 05:37:02;;;;;;;2.47;0.77;;;;;;;12.14;100.00;100524.34;4878883;29;20517;-91
2022/09/15 05:39:28;;;;;;;4.07;0.73;;;;;;;12.18;100.00;100537.31;4881701;29;20063;-91
2022/09/15 05:41:54;;;;;;;8.15;0.90;;;;;;;12.10;100.00;100532.78;4862641;29;20069;-90
2022/09/15 05:44:20;;;;;;;2.75;0.70;;;;;;;12.08;100.00;100535.56;4861595;29;20482;-91
2022/09/15 05:46:46;;;;;;;4.93;0.70;;;;;;;12.01;100.00;100523.88;4854285;29;20061;-92
2022/09/15 05:49:13;;;;;;;8.35;1.00;;;;;;;11.99;100.00;100536.44;4888959;29;20110;-92
2022/09/15 05:51:38;;;;;;;9.38;1.33;;;;;;;12.00;100.00;100538.09;4850194;29;20581;-91
2022/09/15 05:54:05;;;;;;;2.53;0.75;;;;;;;12.00;100.00;100538.94;4863753;29;20072;-91
2022/09/15 05:56:32;;;;;;;5.47;1.30;;;;;;;11.98;100.00;100548.84;4866390;29;20055;-91
2022/09/15 05:58:57;;;;;;;3.60;0.73;;;;;;;11.97;100.00;100565.75;4854519;29;20043;-91
2022/09/15 06:01:28;;;;;;;6.15;0.80;;;;;;;11.97;100.00;100557.78;4839956;29;20044;-92
2022/09/15 06:03:55;;;;;;;4.85;0.82;;;;;;;11.95;100.00;100567.69;4865099;29;20053;-90
2022/09/15 06:06:23;;;;;;;9.98;1.13;;;;;;;11.93;100.00;100571.50;4863856;29;20200;-91
2022/09/15 06:08:54;;;;;;;3.38;0.75;;;;;;;11.90;100.00;100564.66;4853004;29;20120;-92
2022/09/15 06:11:23;;;;;;;7.25;1.17;;;;;;;11.91;100.00;100574.28;4862244;29;20522;-92
2022/09/15 06:13:49;;;;;;;6.85;1.00;;;;;;;11.89;100.00;100563.00;4873729;29;20068;-93
2022/09/15 06:16:19;;;;;;;7.57;1.10;;;;;;;11.89;100.00;100563.00;4850505;29;20041;-91
2022/09/15 06:18:46;;;;;;;6.90;0.77;;;;;;;11.89;100.00;100571.78;4866370;29;20033;-92
2022/09/15 06:21:24;;;;;;;4.80;0.80;;;;;;;11.90;100.00;100580.56;4845390;29;20029;-94
2022/09/15 06:24:02;;;;;;;6.95;1.05;;;;;;;11.89;100.00;100584.19;4877684;29;20073;-93
2022/09/15 06:26:28;;;;;;;8.75;1.15;;;;;;;11.86;100.00;100580.03;4848151;29;20067;-93
2022/09/15 06:29:00;;;;;;;3.42;1.00;;;;;;;11.85;100.00;100581.00;4838117;29;20069;-93
2022/09/15 06:31:28;;;;;;;7.47;0.80;;;;;;;11.83;100.00;100582.13;4856853;29;20465;-91
2022/09/15 06:34:36;;;;;;;6.30;0.73;;;;;;;11.83;100.00;100583.00;4844271;29;20029;-94
2022/09/15 06:37:01;;;;;;;4.65;0.77;;;;;;;11.79;100.00;100593.03;4854487;29;20478;-93
2022/09/15 06:39:27;;;;;;;9.27;1.20;;;;;;;11.83;100.00;100603.34;4841147;29;20057;-94
2022/09/15 06:41:53;;;;;;;6.18;0.70;;;;;;;11.83;100.00;100598.03;4873798;29;20069;-96
2022/09/15 06:44:20;;;;;;;8.18;0.73;;;;;;;11.82;100.00;100605.13;4866910;29;20034;-95
2022/09/15 06:46:59;;;;;;;7.45;1.45;;;;;;;11.82;100.00;100601.69;4871013;29;20105;-93
2022/09/15 06:49:25;;;;;;;7.20;0.73;;;;;;;11.76;100.00;100608.38;4861993;29;20045;-93
2022/09/15 06:51:51;;;;;;;6.90;0.65;;;;;;;11.67;100.00;100607.47;4849035;29;20367;-95
2022/09/15 06:54:17;;;;;;;6.63;0.70;;;;;;;11.68;100.00;100619.72;4867113;29;20043;-95
2022/09/15 06:56:44;;;;;;;8.93;1.05;;;;;;;11.69;100.00;100616.06;4869053;29;20132;-93
2022/09/15 06:59:11;;;;;;;4.53;0.90;;;;;;;11.68;100.00;100614.41;4847734;29;20048;-95
2022/09/15 07:01:37;;;;;;;15.25;0.82;;;;;;;11.68;100.00;100609.13;4857305;29;20030;-95
2022/09/15 07:04:07;;;;;;;6.85;0.63;;;;;;;11.68;100.00;100613.56;4867496;29;20378;-92
2022/09/15 07:06:33;;;;;;;6.57;0.90;;;;;;;11.69;100.00;100608.13;4857939;29;20386;-88
2022/09/15 07:09:01;;;;;;;4.72;0.80;;;;;;;11.72;100.00;100602.53;4882222;29;20048;-89
2022/09/15 07:11:27;;;;;;;6.30;1.08;;;;;;;11.80;100.00;100601.81;4873105;29;20045;-94
2022/09/15 07:13:54;;;;;;;7.38;1.33;;;;;;;11.86;100.00;100589.78;4865577;29;20032;-94
2022/09/15 07:16:21;;;;;;;9.20;1.02;;;;;;;11.94;100.00;100611.06;4851088;29;20045;-93
2022/09/15 07:18:48;;;;;;;6.35;0.70;;;;;;;11.95;100.00;100604.78;4862244;29;20044;-94
2022/09/15 07:21:19;;;;;;;7.00;0.65;;;;;;;11.94;100.00;100608.44;4844122;29;20037;-88
2022/09/15 07:23:45;;;;;;;6.70;1.02;;;;;;;11.93;100.00;100603.28;4856998;29;20036;-89
2022/09/15 07:26:16;;;;;;;7.95;1.02;;;;;;;11.90;100.00;100605.22;4862639;29;21702;-94
2022/09/15 07:28:44;;;;;;;9.63;1.38;;;;;;;11.89;100.00;100605.38;4877645;29;20057;-94
2022/09/15 07:31:13;;;;;;;6.43;1.00;;;;;;;11.93;100.00;100614.69;4859351;29;20550;-93
2022/09/15 07:33:39;;;;;;;7.18;0.82;;;;;;;11.94;100.00;100621.66;4874879;29;20065;-93
2022/09/15 07:36:06;;;;;;;10.40;1.25;;;;;;;12.00;100.00;100623.72;4858377;29;20045;-88
2022/09/15 07:38:33;;;;;;;3.17;0.70;;;;;;;12.02;100.00;100621.72;4860863;29;20037;-90
2022/09/15 07:41:08;;;;;;;6.20;0.80;;;;;;;12.03;100.00;100630.53;4863044;29;20137;-89
2022/09/15 07:43:34;;;;;;;4.95;0.70;;;;;;;12.01;100.00;100629.84;4881434;29;20037;-89
2022/09/15 07:46:01;;;;;;;5.88;0.95;;;;;;;12.05;100.00;100636.50;4857126;29;20048;-89
2022/09/15 07:48:28;;;;;;;2.58;0.68;;;;;;;12.06;100.00;100646.13;4867345;29;20037;-89
2022/09/15 07:50:54;;;;;;;4.47;1.15;;;;;;;12.08;100.00;100646.84;4849530;29;20041;-89
2022/09/15 07:53:20;;;;;;;8.10;0.73;;;;;;;12.10;100.00;100641.41;4835123;29;20120;-90
2022/09/15 07:55:52;;;;;;;7.43;0.95;;;;;;;12.15;100.00;100642.59;4863632;29;20047;-88
2022/09/15 07:58:18;;;;;;;6.38;0.82;;;;;;;12.14;100.00;100643.59;4848893;29;20486;-89
2022/09/15 08:00:46;;;;;;;7.65;1.70;;;;;;;12.18;100.00;100641.50;4853997;29;20067;-89
2022/09/15 08:03:12;;;;;;;5.97;0.88;;;;;;;12.23;100.00;100649.81;4854044;29;20057;-89
2022/09/15 08:05:38;;;;;;;10.15;0.85;;;;;;;12.23;100.00;100652.44;4848299;29;20045;-89
2022/09/15 08:08:05;;;;;;;7.60;1.67;;;;;;;12.27;100.00;100656.47;4838091;29;20368;-89
2022/09/15 08:10:31;;;;;;;7.80;1.30;;;;;;;12.30;100.00;100660.63;4874776;29;20045;-88
2022/09/15 08:13:00;;;;;;;7.55;0.98;;;;;;;12.31;100.00;100664.94;4836794;29;20069;-89
2022/09/15 08:15:26;;;;;;;15.15;1.35;;;;;;;12.32;100.00;100666.63;4858079;29;20051;-88
2022/09/15 08:17:52;;;;;;;8.50;1.23;;;;;;;12.37;100.00;100664.38;4861243;29;20034;-89
2022/09/15 08:20:18;;;;;;;12.52;1.10;;;;;;;12.46;100.00;100667.06;4862523;29;20044;-89
2022/09/15 08:22:45;;;;;;;11.02;1.35;;;;;;;12.51;100.00;100670.97;4864020;29;20060;-88
2022/09/15 08:25:11;;;;;;;8.00;1.33;;;;;;;12.50;100.00;100661.31;4880615;29;20113;-89
2022/09/15 08:27:38;;;;;;;7.18;1.42;;;;;;;12.52;100.00;100674.44;4848951;29;20032;-89
2022/09/15 08:30:05;;;;;;;7.07;1.00;;;;;;;12.49;100.00;100670.28;4854903;29;20509;-89
2022/09/15 08:32:32;;;;;;;10.10;1.42;;;;;;;12.49;100.00;100672.06;4859098;29;20127;-89
2022/09/15 08:34:58;;;;;;;6.18;1.05;;;;;;;12.48;100.00;100678.38;4862625;29;20040;-89
2022/09/15 08:37:24;;;;;;;6.05;0.98;;;;;;;12.50;100.00;100671.13;4855930;29;20065;-89
2022/09/15 08:39:50;;;;;;;7.18;1.40;;;;;;;12.50;100.00;100673.75;4854857;29;20048;-89
2022/09/15 08:42:22;;;;;;;7.28;1.13;;;;;;;12.57;100.00;100674.81;4862700;29;20044;-89
2022/09/15 08:44:59;;;;;;;9.55;0.98;;;;;;;12.59;100.00;100677.31;4864583;29;20120;-89
2022/09/15 08:47:36;;;;;;;8.02;1.27;;;;;;;12.63;100.00;100678.66;4848973;29;20036;-89
2022/09/15 08:50:26;;;;;;;7.28;1.10;;;;;;;12.65;100.00;100684.66;4849142;29;20041;-89
2022/09/15 08:53:11;;;;;;;11.20;1.38;;;;;;;12.75;100.00;100692.53;4854477;29;20045;-89
2022/09/15 08:55:54;;;;;;;8.15;1.05;;;;;;;12.80;100.00;100692.09;4860723;29;20422;-90
2022/09/15 08:58:24;;;;;;;9.15;1.35;;;;;;;12.79;100.00;100688.59;4848156;29;20045;-89
2022/09/15 09:01:13;;;;;;;5.40;0.93;;;;;;;12.82;100.00;100692.78;4874445;29;20120;-89
2022/09/15 09:03:47;;;;;;;5.00;0.80;;;;;;;12.92;100.00;100695.31;4871938;29;20048;-89
2022/09/15 09:06:46;;;;;;;10.38;1.70;;;;;;;12.94;100.00;100702.16;4864348;29;20041;-90
2022/09/15 09:09:41;;;;;;;7.63;1.30;;;;;;;13.03;100.00;100697.72;4837818;29;20052;-89
2022/09/15 09:12:16;;;;;;;8.10;1.20;;;;;;;13.11;100.00;100700.44;4863272;29;20045;-89
2022/09/15 09:15:00;;;;;;;5.87;1.10;;;;;;;13.14;100.00;100705.44;4864529;29;20029;-89
2022/09/15 09:17:47;;;;;;;10.10;1.58;;;;;;;13.18;99.94;100705.97;4854842;29;20398;-93
2022/09/15 09:20:36;;;;;;;13.05;1.35;;;;;;;13.21;99.20;100705.66;4863572;29;20044;-94
2022/09/15 09:23:10;;;;;;;7.35;1.15;;;;;;;13.32;99.30;100714.34;4842734;29;20045;-89
2022/09/15 09:25:37;;;;;;;7.53;1.13;;;;;;;13.38;98.63;100708.41;4863736;29;20100;-89
2022/09/15 09:28:05;;;;;;;7.47;1.25;;;;;;;13.39;98.10;100699.47;4834621;29;20041;-88
2022/09/15 09:30:33;;;;;;;11.88;1.10;;;;;;;13.43;97.20;100703.47;4864253;29;20040;-93
2022/09/15 09:33:14;;;;;;;7.05;0.93;;;;;;;13.43;96.08;100708.78;4862499;29;20041;-93
2022/09/15 09:35:51;;;;;;;5.72;0.88;;;;;;;13.54;96.67;100704.25;4849760;29;20450;-89
2022/09/15 09:38:35;;;;;;;9.68;0.82;;;;;;;13.59;96.62;100700.13;4869914;29;20529;-88
2022/09/15 09:41:08;;;;;;;4.63;0.65;;;;;;;13.66;95.82;100705.63;4862919;29;20041;-95
2022/09/15 09:43:34;;;;;;;11.48;1.08;;;;;;;13.73;95.75;100711.13;4846911;29;20486;-93
2022/09/15 09:46:00;;;;;;;8.82;1.13;;;;;;;13.83;95.85;100716.31;4850332;29;20037;-94
2022/09/15 09:48:28;;;;;;;7.30;1.15;;;;;;;13.85;94.51;100719.66;4848517;29;20044;-93
2022/09/15 09:50:55;;;;;;;12.40;1.30;;;;;;;13.81;93.97;100720.97;4888001;29;20075;-93
2022/09/15 09:53:35;;;;;;;5.47;1.00;;;;;;;13.79;93.17;100715.00;4851192;29;20049;-93
2022/09/15 09:56:24;;;;;;;10.20;1.25;;;;;;;13.73;92.08;100711.13;4857423;29;20517;-89
2022/09/15 09:58:51;;;;;;;6.50;1.20;;;;;;;13.79;93.26;100709.69;4839170;29;20101;-89
2022/09/15 10:01:20;;;;;;;10.05;0.98;;;;;;;13.86;92.55;100716.00;4844627;29;20101;-93
2022/09/15 10:03:46;;;;;;;10.13;1.52;;;;;;;13.86;91.65;100716.84;4821609;29;20092;-93
2022/09/15 10:06:19;;;;;;;5.95;1.48;;;;;;;13.85;90.14;100714.34;4830288;29;20039;-92
2022/09/15 10:09:03;;;;;;;6.47;0.95;;;;;;;13.73;89.38;100706.66;4829970;29;20037;-93
2022/09/15 10:11:45;;;;;;;5.75;1.05;;;;;;;13.74;89.95;100710.16;4850573;29;20100;-94
2022/09/15 10:14:27;;;;;;;8.05;1.48;;;;;;;13.76;88.79;100708.19;4841718;29;20038;-91
2022/09/15 10:17:06;;;;;;;7.75;1.48;;;;;;;13.79;88.28;100705.19;4824808;29;20044;-89
2022/09/15 10:19:42;;;;;;;5.07;0.75;;;;;;;13.88;88.16;100700.75;4828463;29;20037;-89
2022/09/15 10:22:09;;;;;;;9.77;1.10;;;;;;;13.91;87.94;100710.22;4855274;29;20044;-93
2022/09/15 10:24:38;;;;;;;6.25;0.90;;;;;;;13.96;87.00;100707.91;4843848;29;20512;-93
2022/09/15 10:27:26;;;;;;;5.50;1.35;;;;;;;14.11;87.33;100710.81;4815589;29;20030;-93
2022/09/15 10:29:52;;;;;;;6.38;1.45;;;;;;;14.35;87.13;100711.88;4808527;29;20042;-93
2022/09/15 10:32:30;;;;;;;7.47;1.45;;;;;;;14.60;86.56;100709.25;4856346;29;20040;-93
2022/09/15 10:35:14;;;;;;;4.90;1.10;;;;;;;14.70;85.93;100711.75;4839297;29;20045;-93
2022/09/15 10:38:01;;;;;;;7.90;1.27;;;;;;;14.74;84.63;100716.56;4829241;29;20040;-88
2022/09/15 10:40:57;;;;;;;8.82;1.92;;;;;;;14.66;78.81;100721.88;4856181;29;20132;-92
2022/09/15 10:43:32;;;;;;;4.80;0.55;;;;;;;14.52;79.90;100716.19;4821855;29;20060;-94
2022/09/15 10:46:04;;;;;;;6.00;1.25;;;;;;;14.51;81.44;100733.16;4821898;29;20285;-87
2022/09/15 10:49:20;;;;;;;4.68;0.80;;;;;;;14.50;80.60;100734.16;4845213;29;20097;-88
2022/09/15 10:52:12;;;;;;;5.53;1.00;;;;;;;14.44;80.94;100728.66;4793564;29;20049;-88
2022/09/15 10:54:47;;;;;;;5.65;1.00;;;;;;;14.42;79.61;100725.31;4825949;29;20491;-89
2022/09/15 10:57:35;;;;;;;9.18;1.20;;;;;;;14.34;77.03;100716.34;4840898;29;20037;-89
2022/09/15 11:00:07;;;;;;;6.85;0.95;;;;;;;14.39;78.55;100727.34;4844679;29;20049;-89
2022/09/15 11:02:42;;;;;;;8.00;1.00;;;;;;;14.41;78.66;100721.84;4841608;29;20045;-90
2022/09/15 11:05:25;;;;;;;5.78;1.25;;;;;;;14.57;77.97;100720.22;4847100;29;20124;-90
2022/09/15 11:08:07;;;;;;;3.42;0.93;;;;;;;14.59;77.12;100715.53;4846477;29;20372;-87
2022/09/15 11:10:59;;;;;;;8.18;0.98;;;;;;;14.63;76.96;100717.75;4855618;29;20113;-89
2022/09/15 11:13:39;;;;;;;4.88;0.98;;;;;;;14.64;77.51;100718.56;4845390;29;20037;-89
2022/09/15 11:16:53;;;;;;;4.20;0.90;;;;;;;14.60;76.66;100719.88;4861410;29;20052;-93
2022/09/15 11:19:40;;;;;;;6.95;1.00;;;;;;;14.57;75.89;100712.22;4826441;29;20045;-93
2022/09/15 11:22:17;;;;;;;7.72;1.23;;;;;;;14.56;75.89;100721.19;4832951;29;20049;-93
2022/09/15 11:24:53;;;;;;;4.90;1.00;;;;;;;14.64;76.37;100715.88;4849220;29;20041;-93
2022/09/15 11:27:30;;;;;;;4.47;0.98;;;;;;;14.87;75.80;100716.09;4825471;29;20509;-89
2022/09/15 11:30:19;;;;;;;7.75;1.10;;;;;;;14.90;75.22;100711.44;4823683;29;20105;-89
2022/09/15 11:32:54;;;;;;;6.90;0.80;;;;;;;14.87;74.74;100721.41;4858562;29;20038;-94
2022/09/15 11:35:32;;;;;;;3.95;0.80;;;;;;;14.88;74.73;100715.13;4849697;29;20041;-89
2022/09/15 11:38:06;;;;;;;6.53;1.33;;;;;;;14.99;75.55;100718.44;4864825;29;20052;-89
2022/09/15 11:40:41;;;;;;;6.55;0.80;;;;;;;14.94;73.96;100721.59;4838626;29;20072;-94
2022/09/15 11:43:28;;;;;;;5.28;1.60;;;;;;;14.76;73.22;100713.75;4832524;29;20046;-93